Time;durP1;ratioP1;P1;durP2;ratioP2;P2;SDS_P1;SDS_P2;PMS_P1;PMS_P2;Temp;Humidity;BMP_temperature;BMP_pressure;BME280_temperature;BME280_humidity;BME280_pressure;Samples;Min_cycle;Max_cycle;Signal;HPM_P1;HPM_P2
2022/12/15 00:39:16;;;;;;;;;;;-0.90;99.90;;;;;;5047851;28;20076;-57
2022/12/15 00:41:45;;;;;;;6.47;2.87;;;-0.90;99.90;;;;;;5070352;28;19974;-61
2022/12/15 00:44:10;;;;;;;8.07;2.17;;;-0.90;99.90;;;;;;5043476;28;20039;-60
2022/12/15 00:46:54;;;;;;;4.17;2.27;;;-0.90;99.90;;;;;;5031375;28;20123;-59
2022/12/15 01:20:17;;;;;;;5.70;1.75;;;-0.90;99.90;;;;;;5016345;28;19916;-63
2022/12/15 01:22:54;;;;;;;6.00;1.63;;;-1.00;99.90;;;;;;5016772;28;20407;-63
2022/12/15 01:25:21;;;;;;;3.87;1.30;;;-1.00;99.90;;;;;;5030470;28;20571;-63
2022/12/15 01:27:47;;;;;;;3.27;1.80;;;-1.00;99.90;;;;;;5026539;28;20068;-62
2022/12/15 01:30:16;;;;;;;3.93;1.97;;;-1.10;99.90;;;;;;5021431;28;20056;-63
2022/12/15 01:32:42;;;;;;;4.37;1.77;;;-1.00;99.90;;;;;;5010817;28;20128;-62
2022/12/15 01:35:09;;;;;;;5.40;2.10;;;-1.10;99.90;;;;;;5017534;28;20175;-63
2022/12/15 01:37:35;;;;;;;5.90;1.93;;;-1.10;99.90;;;;;;5014131;28;20772;-60
2022/12/15 01:42:45;;;;;;;;;;;-1.10;99.90;;;;;;5013459;28;20509;-61
2022/12/15 01:45:23;;;;;;;5.27;2.13;;;-1.20;99.90;;;;;;5021649;28;20020;-62
2022/12/15 01:47:56;;;;;;;6.10;2.30;;;-1.20;99.90;;;;;;5034114;28;20050;-61
2022/12/15 01:50:22;;;;;;;5.13;2.90;;;-1.30;99.90;;;;;;5021804;28;20041;-61
2022/12/15 01:52:49;;;;;;;5.23;2.60;;;-1.30;99.90;;;;;;5000248;28;20044;-61
2022/12/15 01:55:17;;;;;;;6.10;2.47;;;-1.30;99.90;;;;;;5017589;28;20088;-61
2022/12/15 01:57:43;;;;;;;8.73;2.17;;;-1.40;99.90;;;;;;5018595;28;20053;-61
2022/12/15 02:00:10;;;;;;;6.87;2.20;;;-1.40;99.90;;;;;;5017328;28;20584;-61
2022/12/15 02:02:39;;;;;;;6.80;2.63;;;-1.40;99.90;;;;;;5013336;28;20049;-61
2022/12/15 02:05:07;;;;;;;5.07;2.03;;;-1.40;99.90;;;;;;5026363;28;20161;-61
2022/12/15 02:07:33;;;;;;;4.23;1.80;;;-1.30;99.90;;;;;;5015464;28;20091;-61
2022/12/15 02:10:02;;;;;;;5.10;1.47;;;-1.30;99.90;;;;;;5004076;28;20053;-61
2022/12/15 02:13:10;;;;;;;8.33;1.80;;;-1.30;99.90;;;;;;4998598;28;20280;-61
2022/12/15 02:15:55;;;;;;;6.00;1.97;;;-1.20;99.90;;;;;;5010424;28;20446;-61
2022/12/15 02:18:39;;;;;;;9.10;1.90;;;-1.20;99.90;;;;;;5010715;28;20038;-61
2022/12/15 02:21:04;;;;;;;6.15;1.83;;;-1.20;99.90;;;;;;5018600;28;20057;-61
2022/12/15 02:23:55;;;;;;;6.03;1.40;;;-1.20;99.90;;;;;;5023325;28;20199;-61
2022/12/15 02:26:51;;;;;;;12.20;3.40;;;-1.20;99.90;;;;;;5002315;28;20042;-61
2022/12/15 02:29:59;;;;;;;3.27;1.27;;;-1.20;99.90;;;;;;5015255;28;20045;-62
2022/12/15 02:32:38;;;;;;;3.00;1.33;;;-1.20;99.90;;;;;;5015845;28;20483;-62
2022/12/15 02:35:19;;;;;;;6.50;1.40;;;-1.30;99.90;;;;;;5026944;28;20280;-62
2022/12/15 02:37:46;;;;;;;10.53;1.70;;;-1.30;99.90;;;;;;5016702;28;20437;-61
2022/12/15 02:40:11;;;;;;;9.77;1.53;;;-1.30;99.90;;;;;;5017057;28;20048;-62
2022/12/15 02:43:07;;;;;;;5.43;1.40;;;-1.30;99.90;;;;;;5027200;28;20068;-62
2022/12/15 02:45:53;;;;;;;3.43;1.23;;;-1.20;99.90;;;;;;5011995;28;20556;-62
2022/12/15 02:48:46;;;;;;;5.50;1.40;;;-1.30;99.90;;;;;;5016806;28;20049;-61
2022/12/15 02:51:21;;;;;;;3.97;1.30;;;-1.30;99.90;;;;;;5034564;28;20090;-62
2022/12/15 02:54:16;;;;;;;4.80;1.83;;;-1.30;99.90;;;;;;5015914;28;20401;-62
2022/12/15 02:56:44;;;;;;;3.77;1.27;;;-1.30;99.90;;;;;;5023345;28;20056;-62
2022/12/15 02:59:23;;;;;;;7.43;1.50;;;-1.30;99.90;;;;;;5024023;28;20088;-62
2022/12/15 03:01:55;;;;;;;5.97;1.50;;;-1.30;99.90;;;;;;5014975;28;20036;-62
2022/12/15 03:04:21;;;;;;;4.03;1.03;;;-1.20;99.90;;;;;;5010019;28;20037;-62
2022/12/15 03:06:57;;;;;;;6.57;2.03;;;-1.20;99.90;;;;;;5019532;28;20503;-62
2022/12/15 03:09:23;;;;;;;6.30;1.60;;;-1.20;99.90;;;;;;5019231;28;20100;-62
2022/12/15 03:11:49;;;;;;;5.63;1.30;;;-1.20;99.90;;;;;;5001492;28;20133;-62
2022/12/15 03:14:15;;;;;;;6.93;1.20;;;-1.20;99.90;;;;;;5021830;28;20510;-62
2022/12/15 03:16:41;;;;;;;3.90;1.30;;;-1.20;99.90;;;;;;5003614;28;20440;-62
2022/12/15 03:19:06;;;;;;;8.33;1.60;;;-1.20;99.90;;;;;;5027861;28;20255;-62
2022/12/15 03:21:32;;;;;;;5.60;1.10;;;-1.20;99.90;;;;;;4999810;28;20049;-62
2022/12/15 03:23:58;;;;;;;7.50;1.10;;;-1.20;99.90;;;;;;5015016;28;22648;-62
2022/12/15 03:26:23;;;;;;;4.97;1.10;;;-1.20;99.90;;;;;;5025424;28;20072;-61
2022/12/15 03:28:52;;;;;;;6.10;1.10;;;-1.30;99.90;;;;;;5020433;28;20050;-63
2022/12/15 03:31:18;;;;;;;7.97;2.43;;;-1.30;99.90;;;;;;5013487;28;20192;-62
2022/12/15 03:33:44;;;;;;;8.23;1.10;;;-1.30;99.90;;;;;;5005858;28;20511;-62
2022/12/15 03:36:10;;;;;;;3.70;1.47;;;-1.40;99.90;;;;;;5012811;28;20046;-62
2022/12/15 03:38:35;;;;;;;10.63;1.40;;;-1.40;99.90;;;;;;5007894;28;20087;-62
2022/12/15 03:41:01;;;;;;;10.00;1.30;;;-1.40;99.90;;;;;;5035901;28;20130;-62
2022/12/15 03:43:27;;;;;;;10.87;1.90;;;-1.40;99.90;;;;;;5001910;28;20064;-62
2022/12/15 03:45:52;;;;;;;5.27;1.10;;;-1.50;99.90;;;;;;5014193;28;20207;-61
2022/12/15 03:48:18;;;;;;;12.60;1.50;;;-1.50;99.90;;;;;;4998447;28;20517;-62
2022/12/15 03:50:46;;;;;;;5.17;1.30;;;-1.50;99.90;;;;;;5016705;28;20046;-62
2022/12/15 03:53:12;;;;;;;3.97;1.17;;;-1.50;99.90;;;;;;5010810;28;20235;-62
2022/12/15 03:55:38;;;;;;;6.30;1.60;;;-1.50;99.90;;;;;;5022664;28;20045;-62
2022/12/15 03:58:03;;;;;;;6.27;1.77;;;-1.40;99.90;;;;;;4981367;28;20473;-62
2022/12/15 04:00:29;;;;;;;3.23;1.33;;;-1.30;99.90;;;;;;4994575;28;20044;-62
2022/12/15 04:02:55;;;;;;;5.50;1.40;;;-1.30;99.90;;;;;;5017631;28;20064;-62
2022/12/15 04:05:24;;;;;;;6.77;1.60;;;-1.10;99.90;;;;;;5014945;28;20121;-62
2022/12/15 04:07:51;;;;;;;5.77;1.50;;;-1.20;99.90;;;;;;5013582;28;20041;-62
2022/12/15 04:10:17;;;;;;;4.33;1.70;;;-1.20;99.90;;;;;;5022327;28;20409;-62
2022/12/15 04:12:43;;;;;;;5.70;1.73;;;-1.10;99.90;;;;;;4999934;28;20045;-62
2022/12/15 04:15:09;;;;;;;6.50;2.20;;;-1.10;99.90;;;;;;5003092;28;20033;-61
2022/12/15 04:17:36;;;;;;;7.10;2.97;;;-1.10;99.90;;;;;;5020306;28;20053;-62
2022/12/15 04:20:09;;;;;;;5.63;2.00;;;-1.10;99.90;;;;;;5002822;28;20068;-62
2022/12/15 04:22:39;;;;;;;3.72;1.67;;;-1.10;99.90;;;;;;5000185;28;20119;-63
2022/12/15 05:33:54;;;;;;;8.65;1.90;;;-0.70;99.90;;;;;;5019343;28;19921;-62
2022/12/15 05:36:20;;;;;;;5.13;1.80;;;-0.60;99.90;;;;;;5017402;28;20034;-62
2022/12/15 05:38:51;;;;;;;9.53;2.20;;;-0.50;99.90;;;;;;5006881;28;20050;-62
2022/12/15 05:41:18;;;;;;;9.27;1.87;;;-0.40;99.90;;;;;;5004996;28;20045;-62
2022/12/15 05:43:44;;;;;;;7.30;1.87;;;-0.30;99.90;;;;;;4991977;28;20037;-62
2022/12/15 05:46:11;;;;;;;8.50;2.27;;;-0.20;99.90;;;;;;5002355;28;20039;-62
2022/12/15 05:48:36;;;;;;;3.70;1.70;;;-0.20;99.90;;;;;;5020897;28;20046;-62
2022/12/15 05:51:10;;;;;;;11.93;1.73;;;-0.20;99.90;;;;;;4995252;28;20049;-62
2022/12/15 05:53:37;;;;;;;6.60;1.92;;;-0.10;99.90;;;;;;5004398;28;20042;-63
2022/12/15 05:56:06;;;;;;;6.53;1.60;;;-0.10;99.90;;;;;;5022713;28;20041;-62
2022/12/15 05:58:32;;;;;;;11.23;2.13;;;-0.10;99.90;;;;;;5026014;28;20045;-62
2022/12/15 06:01:10;;;;;;;8.77;2.97;;;0.00;99.90;;;;;;5009624;28;20067;-62
2022/12/15 06:03:37;;;;;;;5.57;1.80;;;0.00;99.90;;;;;;5019816;28;20152;-62
2022/12/15 06:06:03;;;;;;;7.50;2.20;;;0.00;99.90;;;;;;5019805;28;20492;-62
2022/12/15 06:08:30;;;;;;;7.90;1.70;;;0.10;99.90;;;;;;5023166;28;20036;-62
2022/12/15 06:10:56;;;;;;;5.28;2.00;;;0.10;99.90;;;;;;5021569;28;20050;-62
2022/12/15 06:13:23;;;;;;;5.97;2.03;;;0.10;99.90;;;;;;5014762;28;20041;-63
2022/12/15 06:16:01;;;;;;;5.67;1.63;;;0.10;99.90;;;;;;5013436;28;20033;-62
2022/12/15 06:18:33;;;;;;;5.93;1.43;;;0.10;99.90;;;;;;5035076;28;20420;-62
2022/12/15 06:21:00;;;;;;;9.68;1.90;;;0.10;99.90;;;;;;5014419;28;20265;-62
2022/12/15 06:23:31;;;;;;;6.50;1.75;;;0.10;99.90;;;;;;5022011;28;20071;-62
2022/12/15 06:25:58;;;;;;;2.97;1.58;;;0.10;99.90;;;;;;5024342;28;20092;-62
2022/12/15 06:28:24;;;;;;;11.60;2.00;;;0.10;99.90;;;;;;5014283;28;20040;-62
2022/12/15 06:30:54;;;;;;;5.27;1.80;;;0.00;99.90;;;;;;5010111;28;20556;-62
2022/12/15 06:33:21;;;;;;;11.32;2.03;;;0.00;99.90;;;;;;5017600;28;20084;-61
2022/12/15 06:35:47;;;;;;;7.00;1.73;;;0.00;99.90;;;;;;4999921;28;20074;-62
2022/12/15 06:38:14;;;;;;;12.60;3.83;;;0.00;99.90;;;;;;5022589;28;20040;-62
2022/12/15 06:40:43;;;;;;;9.50;1.60;;;-0.10;99.90;;;;;;5015938;28;20135;-62
2022/12/15 06:43:11;;;;;;;7.88;2.13;;;-0.10;99.90;;;;;;5014887;28;20708;-62
2022/12/15 06:45:37;;;;;;;10.30;1.70;;;-0.10;99.90;;;;;;5000996;28;21854;-63
2022/12/15 06:48:03;;;;;;;8.75;2.10;;;-0.10;99.90;;;;;;5013733;28;20037;-62
2022/12/15 06:50:28;;;;;;;9.57;2.83;;;-0.20;99.90;;;;;;5020731;28;20038;-62
2022/12/15 06:52:54;;;;;;;3.97;1.60;;;-0.20;99.90;;;;;;5021986;28;20423;-62
2022/12/15 06:55:20;;;;;;;5.75;1.67;;;-0.30;99.90;;;;;;5027099;28;20041;-62
2022/12/15 06:57:48;;;;;;;5.07;1.98;;;-0.40;99.90;;;;;;5007082;28;20092;-62
2022/12/15 07:00:15;;;;;;;12.65;2.10;;;-0.40;99.90;;;;;;5019875;28;20098;-62
2022/12/15 07:02:41;;;;;;;5.30;1.83;;;-0.40;99.90;;;;;;4999771;28;20041;-62
2022/12/15 07:05:08;;;;;;;6.72;1.60;;;-0.40;99.90;;;;;;5032374;28;20341;-62
2022/12/15 07:07:33;;;;;;;9.03;2.23;;;-0.30;99.90;;;;;;4998907;28;20098;-62
2022/12/15 07:09:59;;;;;;;7.05;1.88;;;-0.30;99.90;;;;;;5024615;28;20041;-62
2022/12/15 07:12:25;;;;;;;4.82;1.75;;;-0.30;99.90;;;;;;5021639;28;20034;-62
2022/12/15 07:14:50;;;;;;;7.07;1.75;;;-0.30;99.90;;;;;;5026790;28;20049;-62
2022/12/15 07:17:17;;;;;;;9.07;2.00;;;-0.20;99.90;;;;;;5013411;28;20036;-62
2022/12/15 07:19:42;;;;;;;9.10;1.73;;;-0.20;99.90;;;;;;4995698;28;20045;-62
2022/12/15 07:22:08;;;;;;;6.43;1.60;;;-0.20;99.90;;;;;;5023815;28;20045;-61
2022/12/15 07:24:34;;;;;;;5.97;1.42;;;-0.20;99.90;;;;;;5019100;28;20038;-62
2022/12/15 07:26:59;;;;;;;5.53;2.00;;;-0.10;99.90;;;;;;5006409;28;20525;-62
2022/12/15 07:29:25;;;;;;;10.57;2.10;;;0.00;99.90;;;;;;5000867;28;20041;-62
2022/12/15 07:31:51;;;;;;;10.60;1.85;;;0.00;99.90;;;;;;5013205;28;20038;-62
2022/12/15 07:34:16;;;;;;;9.82;1.73;;;0.00;99.90;;;;;;5008514;28;20188;-62
2022/12/15 07:36:42;;;;;;;16.50;2.80;;;0.10;99.90;;;;;;5019415;28;20057;-62
2022/12/15 07:39:08;;;;;;;7.07;2.10;;;0.10;99.90;;;;;;5068993;22;20630;-58
2022/12/15 07:41:34;;;;;;;10.32;2.03;;;0.10;99.90;;;;;;5077507;28;20275;-60
2022/12/15 07:44:01;;;;;;;9.32;2.40;;;0.20;99.90;;;;;;5083175;28;20047;-60
2022/12/15 07:46:27;;;;;;;10.90;1.70;;;0.20;99.90;;;;;;5086131;28;20608;-58
2022/12/15 07:48:53;;;;;;;5.63;1.65;;;0.20;99.90;;;;;;5065833;28;20039;-59
2022/12/15 07:51:22;;;;;;;5.68;1.48;;;0.30;99.90;;;;;;5077699;28;20413;-60
2022/12/15 07:53:49;;;;;;;13.32;1.58;;;0.40;99.90;;;;;;5065912;28;20450;-60
2022/12/15 07:56:16;;;;;;;10.40;1.98;;;0.40;99.90;;;;;;5082625;28;20040;-59
2022/12/15 07:58:42;;;;;;;10.02;2.25;;;0.50;99.90;;;;;;5104925;27;21120;-59
2022/12/15 08:01:11;;;;;;;4.82;1.60;;;0.50;99.90;;;;;;5076479;28;20031;-58
2022/12/15 08:03:37;;;;;;;10.25;3.33;;;0.50;99.90;;;;;;5080959;28;20079;-60
2022/12/15 08:06:11;;;;;;;8.18;2.03;;;0.60;99.90;;;;;;5060503;28;20359;-60
2022/12/15 08:08:37;;;;;;;;;;;0.60;99.90;;;;;;5080679;28;20043;-60
2022/12/15 08:11:12;;;;;;;9.15;1.88;;;0.60;99.90;;;;;;5097284;28;19931;-58
2022/12/15 08:13:39;;;;;;;11.05;2.30;;;0.60;99.90;;;;;;5078235;28;20506;-60
2022/12/15 08:16:05;;;;;;;10.13;2.10;;;0.60;99.90;;;;;;5084513;28;20394;-59
2022/12/15 08:18:34;;;;;;;12.38;3.30;;;0.70;99.90;;;;;;5097235;28;20047;-58
2022/12/15 08:21:07;;;;;;;8.75;2.17;;;0.70;99.90;;;;;;5072294;28;20081;-60
2022/12/15 08:23:33;;;;;;;4.97;1.80;;;0.70;99.90;;;;;;5075936;28;20406;-59
2022/12/15 08:26:13;;;;;;;7.75;2.88;;;0.70;99.90;;;;;;5078281;27;20474;-59
2022/12/15 08:28:40;;;;;;;11.35;2.60;;;0.70;99.90;;;;;;5080226;28;20055;-60
2022/12/15 08:31:12;;;;;;;13.10;3.13;;;0.70;99.90;;;;;;5100687;28;20067;-59
2022/12/15 08:33:38;;;;;;;6.43;2.00;;;0.80;99.90;;;;;;5073834;28;20039;-59
2022/12/15 08:36:07;;;;;;;11.18;2.60;;;0.80;99.90;;;;;;5075153;28;20042;-59
2022/12/15 08:38:37;;;;;;;10.05;3.17;;;0.80;99.90;;;;;;5080320;28;20039;-59
2022/12/15 08:41:22;;;;;;;6.78;2.58;;;0.80;99.90;;;;;;5079954;28;20036;-59
2022/12/15 08:43:48;;;;;;;8.48;2.72;;;0.80;99.90;;;;;;5063132;28;20383;-60
2022/12/15 08:46:19;;;;;;;7.28;2.78;;;0.80;99.90;;;;;;5061541;28;20047;-59
2022/12/15 08:48:46;;;;;;;10.18;2.97;;;0.80;99.90;;;;;;5078651;28;20044;-59
2022/12/15 08:51:12;;;;;;;8.20;3.17;;;0.90;99.90;;;;;;5061122;28;20054;-60
2022/12/15 08:53:38;;;;;;;8.02;3.20;;;0.90;99.90;;;;;;5060903;28;20031;-60
2022/12/15 08:56:16;;;;;;;6.50;2.33;;;0.90;99.90;;;;;;5074697;28;20062;-60
2022/12/15 08:58:42;;;;;;;7.97;3.00;;;1.00;99.90;;;;;;5077978;28;20054;-58
2022/12/15 09:01:19;;;;;;;8.75;2.83;;;1.00;99.90;;;;;;5057802;28;20048;-60
2022/12/15 09:03:45;;;;;;;7.57;2.88;;;1.00;99.90;;;;;;5083097;28;20520;-60
2022/12/15 09:06:17;;;;;;;6.68;2.90;;;1.00;99.90;;;;;;5088686;28;20043;-60
2022/12/15 09:08:43;;;;;;;30.55;3.45;;;1.10;99.90;;;;;;5084761;28;20500;-60
2022/12/15 09:11:09;;;;;;;11.55;3.00;;;1.10;99.90;;;;;;5080601;28;20035;-59
2022/12/15 09:13:35;;;;;;;8.23;2.78;;;1.10;99.90;;;;;;5088251;28;20134;-58
2022/12/15 09:16:04;;;;;;;8.10;2.90;;;1.10;99.90;;;;;;5083625;28;20047;-60
2022/12/15 09:18:30;;;;;;;11.20;3.08;;;1.20;99.90;;;;;;5102975;28;20219;-60
2022/12/15 09:21:02;;;;;;;6.57;3.08;;;1.20;99.90;;;;;;5095258;28;20046;-59
2022/12/15 09:23:28;;;;;;;10.25;3.45;;;1.30;99.90;;;;;;5073772;28;20039;-60
2022/12/15 09:26:00;;;;;;;7.20;3.00;;;1.30;99.90;;;;;;5086872;28;20043;-59
2022/12/15 09:28:28;;;;;;;6.93;3.08;;;1.40;99.90;;;;;;5088806;28;20039;-60
2022/12/15 09:31:00;;;;;;;6.55;2.95;;;1.50;99.90;;;;;;5113782;28;20035;-59
2022/12/15 09:33:26;;;;;;;9.30;2.80;;;1.60;99.90;;;;;;5092369;28;20039;-59
2022/12/15 09:35:53;;;;;;;14.88;3.33;;;1.70;99.90;;;;;;5104267;28;20063;-59
2022/12/15 09:38:18;;;;;;;10.05;2.65;;;1.90;99.90;;;;;;5086648;27;20578;-59
2022/12/15 09:40:44;;;;;;;10.48;2.70;;;1.90;99.90;;;;;;5068907;28;20100;-61
2022/12/15 09:43:17;;;;;;;15.93;3.85;;;2.10;99.90;;;;;;5092184;27;20118;-58
2022/12/15 09:45:49;;;;;;;10.45;2.78;;;2.10;99.90;;;;;;5084359;28;20036;-59
2022/12/15 09:48:35;;;;;;;11.90;3.85;;;2.20;99.90;;;;;;5107320;27;20036;-59
2022/12/15 09:51:03;;;;;;;9.65;3.10;;;2.20;99.90;;;;;;5067838;28;20036;-60
2022/12/15 09:53:30;;;;;;;9.35;2.83;;;2.20;99.90;;;;;;5083291;28;20028;-60
2022/12/15 09:56:03;;;;;;;7.22;3.33;;;2.20;99.90;;;;;;5087182;28;20039;-60
2022/12/15 09:58:47;;;;;;;9.95;3.45;;;2.20;99.90;;;;;;5066284;27;20371;-58
2022/12/15 10:01:44;;;;;;;12.55;3.70;;;2.30;99.90;;;;;;5073597;28;20040;-60
2022/12/15 10:04:29;;;;;;;8.85;2.70;;;2.40;99.90;;;;;;5083925;28;20494;-59
2022/12/15 10:07:31;;;;;;;6.13;2.88;;;2.40;99.90;;;;;;5090099;28;20035;-60
2022/12/15 10:09:57;;;;;;;8.02;3.30;;;2.40;99.90;;;;;;5096873;28;20042;-59
2022/12/15 10:12:29;;;;;;;9.93;3.47;;;2.40;99.90;;;;;;5085984;28;20075;-60
2022/12/15 10:15:08;;;;;;;7.93;3.42;;;2.40;99.90;;;;;;5089897;27;20039;-59
2022/12/15 10:18:03;;;;;;;6.63;3.50;;;2.50;99.90;;;;;;5067210;28;20565;-60
2022/12/15 10:20:31;;;;;;;10.48;4.18;;;2.50;99.90;;;;;;5071875;28;20450;-60
2022/12/15 10:23:10;;;;;;;10.05;4.05;;;2.60;99.90;;;;;;5068455;28;20196;-60
2022/12/15 10:25:36;;;;;;;15.20;6.18;;;2.60;99.90;;;;;;5087504;28;20047;-60
2022/12/15 10:28:23;;;;;;;11.45;5.70;;;2.70;99.90;;;;;;5080913;28;20036;-59
2022/12/15 10:31:18;;;;;;;11.95;4.55;;;2.80;99.90;;;;;;5081490;28;20403;-59
2022/12/15 10:33:50;;;;;;;14.55;4.50;;;2.80;99.90;;;;;;5095329;27;20040;-60
2022/12/15 10:36:16;;;;;;;7.82;4.22;;;2.80;99.90;;;;;;5078439;28;20040;-59
2022/12/15 10:38:46;;;;;;;12.10;5.22;;;2.80;99.90;;;;;;5067423;28;20096;-59
2022/12/15 10:41:18;;;;;;;11.77;5.20;;;2.70;99.90;;;;;;5078634;28;20046;-60
2022/12/15 10:43:47;;;;;;;8.20;4.10;;;2.60;99.90;;;;;;5081839;28;20043;-59
2022/12/15 10:46:20;;;;;;;11.45;4.60;;;2.60;99.90;;;;;;5084490;28;20049;-60
2022/12/15 10:48:50;;;;;;;12.68;4.07;;;2.50;99.90;;;;;;5079445;28;20048;-60
2022/12/15 10:51:46;;;;;;;12.63;4.95;;;2.50;99.90;;;;;;5073513;28;20083;-60
2022/12/15 10:54:14;;;;;;;13.65;5.53;;;2.50;99.90;;;;;;5034125;27;20565;-60
2022/12/15 10:56:52;;;;;;;12.52;3.67;;;2.60;99.90;;;;;;5060084;28;20043;-59
2022/12/15 10:59:34;;;;;;;6.57;2.85;;;2.70;99.90;;;;;;5087211;28;20456;-59
2022/12/15 11:02:19;;;;;;;5.60;3.00;;;2.80;99.90;;;;;;5089677;28;20069;-60
2022/12/15 11:05:02;;;;;;;7.70;2.90;;;2.90;99.90;;;;;;5080022;28;20093;-60
2022/12/15 11:07:41;;;;;;;7.63;3.08;;;3.00;99.90;;;;;;5096789;28;20042;-60
2022/12/15 11:13:19;;;;;;;8.32;2.92;;;3.20;99.90;;;;;;5088427;28;20479;-60
2022/12/15 11:15:52;;;;;;;8.25;2.72;;;3.40;99.90;;;;;;5082412;28;20126;-60
2022/12/15 11:18:31;;;;;;;15.00;3.10;;;3.40;99.90;;;;;;5078809;28;20086;-60
2022/12/15 11:21:20;;;;;;;9.77;2.75;;;3.50;99.90;;;;;;5083458;27;20512;-60
2022/12/15 11:24:15;;;;;;;7.13;2.50;;;3.60;99.90;;;;;;5081690;28;20101;-59
2022/12/15 11:27:30;;;;;;;8.88;2.50;;;3.80;99.90;;;;;;5063017;28;20044;-59
2022/12/15 11:30:18;;;;;;;15.30;2.60;;;3.90;99.90;;;;;;5042614;28;20134;-60
2022/12/15 11:32:47;;;;;;;8.60;2.28;;;3.90;99.90;;;;;;5055263;28;20062;-59
2022/12/15 11:35:17;;;;;;;10.52;2.80;;;4.00;99.90;;;;;;5071614;28;20054;-60
2022/12/15 11:37:45;;;;;;;16.02;5.05;;;4.10;99.90;;;;;;5086006;28;20039;-59
2022/12/15 11:40:16;;;;;;;10.30;3.00;;;4.10;99.90;;;;;;5054964;28;20799;-60
2022/12/15 11:42:51;;;;;;;7.18;2.85;;;4.20;99.90;;;;;;5054901;27;20117;-60
2022/12/15 11:45:34;;;;;;;7.72;2.88;;;4.20;99.90;;;;;;5052563;28;20044;-60
2022/12/15 11:48:13;;;;;;;9.90;3.08;;;4.20;99.90;;;;;;5068557;28;20043;-60
2022/12/15 11:51:16;;;;;;;7.68;2.72;;;4.20;99.90;;;;;;5053566;28;21980;-59
2022/12/15 11:53:54;;;;;;;16.40;3.58;;;4.30;99.90;;;;;;5061100;28;20302;-60
2022/12/15 11:56:32;;;;;;;13.02;3.53;;;4.30;99.90;;;;;;5079178;28;20102;-60
2022/12/15 11:59:23;;;;;;;12.80;3.92;;;4.30;99.90;;;;;;5052673;28;20093;-60
2022/12/15 12:02:13;;;;;;;15.60;4.30;;;4.30;99.90;;;;;;5083368;28;20172;-59
2022/12/15 12:05:10;;;;;;;12.15;3.17;;;4.30;99.90;;;;;;5087399;28;20056;-60
2022/12/15 12:07:51;;;;;;;11.70;3.97;;;4.30;99.90;;;;;;5070504;28;20039;-60
2022/12/15 12:10:36;;;;;;;10.02;3.40;;;4.30;99.90;;;;;;5082996;28;20043;-60
2022/12/15 12:13:05;;;;;;;10.60;3.85;;;4.30;99.90;;;;;;5081962;27;20430;-60
2022/12/15 12:15:48;;;;;;;12.25;5.90;;;4.30;99.90;;;;;;5088658;28;20521;-60
2022/12/15 12:18:18;;;;;;;11.27;4.65;;;4.30;99.90;;;;;;5099241;28;20072;-60
2022/12/15 12:21:02;;;;;;;14.38;4.95;;;4.40;99.90;;;;;;5077063;28;20066;-60
2022/12/15 12:23:37;;;;;;;;;;;4.30;99.90;;;;;;5061275;28;20044;-60
2022/12/15 12:26:17;;;;;;;;;;;4.20;99.90;;;;;;5085205;28;19926;-60
2022/12/15 12:29:03;;;;;;;20.17;5.30;;;4.20;99.90;;;;;;5078445;28;19920;-60
2022/12/15 12:31:52;;;;;;;15.05;5.63;;;4.20;99.90;;;;;;5070140;28;20039;-60
2022/12/15 12:34:29;;;;;;;9.75;5.18;;;4.20;99.90;;;;;;5051851;28;20047;-60
2022/12/15 12:37:04;;;;;;;14.55;5.90;;;4.10;99.90;;;;;;5079217;28;20640;-60
2022/12/15 12:39:31;;;;;;;9.88;5.40;;;4.10;99.90;;;;;;5099115;28;20093;-60
2022/12/15 12:42:09;;;;;;;13.30;5.22;;;4.10;99.90;;;;;;5061962;28;20043;-60
2022/12/15 12:44:37;;;;;;;10.07;4.88;;;4.00;99.90;;;;;;5082999;28;20045;-60
2022/12/15 12:47:22;;;;;;;8.27;4.80;;;4.00;99.90;;;;;;5090309;28;20067;-60
2022/12/15 12:50:00;;;;;;;11.60;4.95;;;4.00;99.90;;;;;;5072688;28;20184;-60
2022/12/15 12:52:30;;;;;;;9.40;4.95;;;4.00;99.90;;;;;;5072691;28;20040;-60
2022/12/15 12:54:58;;;;;;;16.08;5.10;;;4.00;99.90;;;;;;5099322;28;20031;-60
2022/12/15 12:57:44;;;;;;;15.13;5.60;;;4.00;99.90;;;;;;5085576;28;20047;-59
2022/12/15 13:00:15;;;;;;;16.45;5.13;;;4.00;99.90;;;;;;5076819;28;20039;-60
2022/12/15 13:03:27;;;;;;;10.43;5.25;;;4.00;99.90;;;;;;5082949;28;20043;-60
2022/12/15 13:05:53;;;;;;;10.20;4.32;;;3.90;99.90;;;;;;5076443;28;20520;-60
2022/12/15 13:08:28;;;;;;;14.45;3.92;;;3.90;99.90;;;;;;5092006;28;20411;-61
2022/12/15 13:10:55;;;;;;;12.77;4.57;;;3.90;99.90;;;;;;5070354;27;20054;-60
2022/12/15 13:13:30;;;;;;;13.82;4.78;;;3.80;99.90;;;;;;5077401;28;20481;-61
2022/12/15 13:16:11;;;;;;;12.80;4.40;;;3.80;99.90;;;;;;5082724;28;20266;-60
2022/12/15 13:19:03;;;;;;;9.88;5.20;;;3.80;99.90;;;;;;5104777;27;20180;-59
2022/12/15 13:21:43;;;;;;;13.20;5.20;;;3.80;99.90;;;;;;5080962;28;20078;-60
2022/12/15 13:24:24;;;;;;;13.27;5.38;;;3.80;99.90;;;;;;5079366;28;20066;-60
2022/12/15 13:26:51;;;;;;;12.30;5.00;;;3.90;99.90;;;;;;5085559;28;20036;-60
2022/12/15 13:29:22;;;;;;;12.98;4.70;;;3.90;99.90;;;;;;5078766;28;20082;-61
2022/12/15 13:31:49;;;;;;;11.82;4.80;;;3.90;99.90;;;;;;5079672;28;20498;-61
2022/12/15 13:34:18;;;;;;;11.73;5.15;;;3.90;99.90;;;;;;5081599;28;20096;-60
2022/12/15 13:36:47;;;;;;;8.68;4.40;;;4.00;99.90;;;;;;5087177;28;20111;-60
2022/12/15 13:39:15;;;;;;;10.48;4.55;;;4.00;99.90;;;;;;5076149;28;20073;-61
2022/12/15 13:41:45;;;;;;;10.77;4.40;;;4.10;99.90;;;;;;5068173;28;20076;-60
2022/12/15 13:44:13;;;;;;;13.77;4.90;;;4.00;99.90;;;;;;5083957;28;20891;-60
2022/12/15 13:46:45;;;;;;;8.98;4.32;;;4.00;99.90;;;;;;5084619;28;20569;-60
2022/12/15 13:52:02;;;;;;;7.90;3.65;;;3.90;99.90;;;;;;5053432;28;20083;-59
2022/12/15 13:54:39;;;;;;;11.57;4.32;;;3.90;99.90;;;;;;5052921;28;20256;-60
2022/12/15 13:57:16;;;;;;;18.85;6.43;;;3.90;99.90;;;;;;5038262;28;20052;-59
2022/12/15 14:00:00;;;;;;;14.93;4.28;;;3.80;99.90;;;;;;5020997;28;20055;-59
2022/12/15 14:02:34;;;;;;;12.52;6.10;;;3.80;99.90;;;;;;5031599;28;20456;-59
2022/12/15 14:05:20;;;;;;;7.78;4.65;;;3.80;99.90;;;;;;5027247;28;20136;-59
2022/12/15 14:07:59;;;;;;;13.10;4.65;;;3.80;99.90;;;;;;5018933;28;20037;-60
2022/12/15 14:10:37;;;;;;;13.48;5.60;;;3.80;99.90;;;;;;5036376;28;20040;-60
2022/12/15 14:13:22;;;;;;;11.35;4.55;;;3.90;99.90;;;;;;5019345;28;20399;-60
2022/12/15 14:15:52;;;;;;;11.68;4.97;;;3.80;99.90;;;;;;5031303;28;20058;-59
2022/12/15 14:18:36;;;;;;;12.23;5.47;;;3.80;99.90;;;;;;5034093;28;20049;-59
2022/12/15 14:21:07;;;;;;;10.45;4.45;;;3.80;99.90;;;;;;5024253;28;20485;-59
2022/12/15 14:23:42;;;;;;;10.10;3.80;;;3.80;99.90;;;;;;5021788;28;20129;-59
2022/12/15 14:26:10;;;;;;;9.85;3.67;;;3.80;99.90;;;;;;5023400;28;20064;-60
2022/12/15 14:28:41;;;;;;;15.00;5.18;;;3.80;99.90;;;;;;5040930;28;20047;-60
2022/12/15 14:31:17;;;;;;;16.95;5.20;;;3.80;99.90;;;;;;5040118;28;20226;-59
2022/12/15 14:33:45;;;;;;;11.90;4.97;;;3.80;99.90;;;;;;5030902;28;20053;-60
2022/12/15 14:36:13;;;;;;;8.82;3.38;;;3.80;99.90;;;;;;5035483;28;20076;-58
2022/12/15 14:38:53;;;;;;;9.35;3.30;;;3.70;99.90;;;;;;5031505;28;20075;-60
2022/12/15 14:41:25;;;;;;;17.60;6.53;;;3.70;99.90;;;;;;5013748;28;20458;-61
2022/12/15 14:43:55;;;;;;;12.55;4.95;;;3.70;99.90;;;;;;5038393;28;20102;-59
2022/12/15 14:46:26;;;;;;;11.85;4.22;;;3.70;99.90;;;;;;5037291;28;20127;-59
2022/12/15 14:48:57;;;;;;;7.22;3.65;;;3.70;99.90;;;;;;5047099;28;20036;-60
2022/12/15 14:51:26;;;;;;;10.73;4.28;;;3.60;99.90;;;;;;5042277;28;20048;-60
2022/12/15 14:53:53;;;;;;;10.95;4.80;;;3.60;99.90;;;;;;5041789;28;20064;-58
2022/12/15 14:56:18;;;;;;;8.38;3.33;;;3.50;99.90;;;;;;5053449;28;20048;-58
2022/12/15 14:58:58;;;;;;;6.47;2.15;;;3.50;99.90;;;;;;5036645;28;20049;-60
2022/12/15 15:01:48;;;;;;;7.32;2.60;;;3.40;99.90;;;;;;5029623;28;20469;-60
2022/12/15 15:04:33;;;;;;;8.45;2.70;;;3.40;99.90;;;;;;5045475;28;20470;-60
2022/12/15 15:07:04;;;;;;;;;;;3.30;99.90;;;;;;5047044;28;20036;-60
2022/12/15 15:09:33;;;;;;;7.07;1.88;;;3.20;99.90;;;;;;5040180;28;20003;-57
2022/12/15 15:12:05;;;;;;;7.80;2.35;;;3.20;99.90;;;;;;5024946;28;20064;-57
2022/12/15 15:14:43;;;;;;;4.60;2.22;;;3.10;99.90;;;;;;5047105;28;20051;-60
2022/12/15 15:17:12;;;;;;;11.48;3.90;;;3.20;99.90;;;;;;5053037;28;20087;-59
2022/12/15 15:19:45;;;;;;;12.55;4.88;;;3.10;99.90;;;;;;5025947;28;20127;-60
2022/12/15 15:22:39;;;;;;;10.93;4.70;;;3.10;99.90;;;;;;5033537;28;20087;-60
2022/12/15 15:25:28;;;;;;;12.50;4.47;;;3.00;99.90;;;;;;5030389;28;20044;-60
2022/12/15 15:28:10;;;;;;;9.43;3.85;;;2.90;99.90;;;;;;5037436;28;20064;-59
2022/12/15 15:30:42;;;;;;;8.63;3.42;;;2.90;99.90;;;;;;5042701;28;20311;-59
2022/12/15 15:33:09;;;;;;;8.65;3.50;;;2.90;99.90;;;;;;5039620;28;20461;-60
2022/12/15 15:35:35;;;;;;;9.20;3.92;;;2.80;99.90;;;;;;5025566;28;20032;-60
2022/12/15 15:38:18;;;;;;;8.80;3.30;;;2.90;99.90;;;;;;5015380;28;20044;-59
2022/12/15 15:41:13;;;;;;;15.55;3.65;;;2.80;99.90;;;;;;5033518;28;20185;-58
2022/12/15 15:43:42;;;;;;;8.15;2.95;;;2.80;99.90;;;;;;5020141;28;20052;-59
2022/12/15 15:46:15;;;;;;;4.53;2.08;;;2.80;99.90;;;;;;5013975;28;20033;-58